createdAt,value
2016-11-03T00:00:07.052Z,1011.27
2016-11-03T00:01:07.033Z,1011.3
2016-11-03T00:02:07.016Z,1011.33
2016-11-03T00:03:06.999Z,1011.28
2016-11-03T00:04:07.183Z,1011.25
2016-11-03T00:05:06.963Z,1011.28
2016-11-03T00:06:06.945Z,1011.26
2016-11-03T00:07:06.927Z,1011.3
2016-11-03T00:08:06.907Z,1011.35
2016-11-03T00:09:06.890Z,1011.29
2016-11-03T00:10:06.871Z,1011.29
2016-11-03T00:11:06.856Z,1011.28
2016-11-03T00:12:06.835Z,1011.31
2016-11-03T00:13:06.817Z,1011.27
2016-11-03T00:14:06.799Z,1011.3
2016-11-03T00:15:06.782Z,1011.3
2016-11-03T00:16:06.768Z,1011.3
2016-11-03T00:17:06.744Z,1011.29
2016-11-03T00:18:06.730Z,1011.28
2016-11-03T00:19:06.712Z,1011.34
2016-11-03T00:20:06.691Z,1011.33
2016-11-03T00:21:06.675Z,1011.33
2016-11-03T00:22:06.657Z,1011.31
2016-11-03T00:23:06.637Z,1011.3
2016-11-03T00:24:06.618Z,1011.31
2016-11-03T00:25:06.604Z,1011.32
2016-11-03T00:26:06.584Z,1011.32
2016-11-03T00:27:06.565Z,1011.37
2016-11-03T00:28:06.549Z,1011.36
2016-11-03T00:29:06.530Z,1011.38
2016-11-03T00:30:06.511Z,1011.37
2016-11-03T00:31:06.496Z,1011.35
2016-11-03T00:32:06.473Z,1011.38
2016-11-03T00:33:06.456Z,1011.41
2016-11-03T00:34:06.436Z,1011.38
2016-11-03T00:35:06.421Z,1011.4
2016-11-03T00:36:06.401Z,1011.46
2016-11-03T00:37:06.383Z,1011.42
2016-11-03T00:38:06.364Z,1011.4
2016-11-03T00:39:06.346Z,1011.4
2016-11-03T00:40:06.329Z,1011.43
2016-11-03T00:41:06.309Z,1011.41
2016-11-03T00:42:06.291Z,1011.43
2016-11-03T00:43:06.273Z,1011.42
2016-11-03T00:44:06.256Z,1011.44
2016-11-03T00:45:06.237Z,1011.45
2016-11-03T00:46:06.217Z,1011.46
2016-11-03T00:47:06.200Z,1011.48
2016-11-03T00:48:06.182Z,1011.46
2016-11-03T00:49:06.163Z,1011.46
2016-11-03T00:50:06.145Z,1011.47
2016-11-03T00:51:06.128Z,1011.47
2016-11-03T00:52:06.108Z,1011.45
2016-11-03T00:53:06.091Z,1011.44
2016-11-03T00:54:06.072Z,1011.46
2016-11-03T00:55:06.054Z,1011.43
2016-11-03T00:56:06.034Z,1011.44
2016-11-03T00:57:06.020Z,1011.43
2016-11-03T00:58:05.999Z,1011.46
2016-11-03T00:59:05.981Z,1011.48
2016-11-03T01:00:05.962Z,1011.53
2016-11-03T01:01:05.944Z,1011.49
2016-11-03T01:02:05.926Z,1011.52
2016-11-03T01:03:05.906Z,1011.55
2016-11-03T01:04:05.887Z,1011.52
2016-11-03T01:05:05.872Z,1011.56
2016-11-03T01:06:05.853Z,1011.55
2016-11-03T01:07:05.833Z,1011.53
2016-11-03T01:08:05.815Z,1011.54
2016-11-03T01:09:05.798Z,1011.56
2016-11-03T01:10:05.780Z,1011.52
2016-11-03T01:11:05.761Z,1011.56
2016-11-03T01:12:05.747Z,1011.55
2016-11-03T01:13:05.725Z,1011.55
2016-11-03T01:14:05.706Z,1011.57
2016-11-03T01:15:05.688Z,1011.57
2016-11-03T01:16:05.671Z,1011.6
2016-11-03T01:17:05.675Z,1011.61
2016-11-03T01:18:05.638Z,1011.59
2016-11-03T01:19:05.616Z,1011.59
2016-11-03T01:20:05.598Z,1011.6
2016-11-03T01:21:05.582Z,1011.61
2016-11-03T01:22:05.562Z,1011.58
2016-11-03T01:23:05.546Z,1011.6
2016-11-03T01:24:05.526Z,1011.56
2016-11-03T01:25:05.508Z,1011.56
2016-11-03T01:26:05.490Z,1011.56
2016-11-03T01:27:05.474Z,1011.51
2016-11-03T01:28:05.456Z,1011.57
2016-11-03T01:29:05.436Z,1011.63
2016-11-03T01:30:05.419Z,1011.6
2016-11-03T01:31:05.403Z,1011.62
2016-11-03T01:32:05.384Z,1011.61
2016-11-03T01:33:05.366Z,1011.61
2016-11-03T01:34:05.349Z,1011.65
2016-11-03T01:35:05.333Z,1011.65
2016-11-03T01:36:05.313Z,1011.6
2016-11-03T01:37:05.296Z,1011.63
2016-11-03T01:38:05.278Z,1011.59
2016-11-03T01:39:05.263Z,1011.6
2016-11-03T01:40:05.244Z,1011.63
2016-11-03T01:41:05.225Z,1011.61
2016-11-03T01:42:05.209Z,1011.64
2016-11-03T01:43:05.192Z,1011.65
2016-11-03T01:44:05.171Z,1011.64
2016-11-03T01:45:05.154Z,1011.62
2016-11-03T01:46:05.135Z,1011.61
2016-11-03T01:47:05.117Z,1011.65
2016-11-03T01:48:05.100Z,1011.62
2016-11-03T01:49:05.083Z,1011.65
2016-11-03T01:50:05.064Z,1011.63
2016-11-03T01:51:05.048Z,1011.65
2016-11-03T01:52:05.033Z,1011.66
2016-11-03T01:53:05.013Z,1011.65
2016-11-03T01:54:04.994Z,1011.65
2016-11-03T01:55:04.979Z,1011.65
2016-11-03T01:56:04.958Z,1011.68
2016-11-03T01:57:04.943Z,1011.66
2016-11-03T01:58:04.928Z,1011.68
2016-11-03T01:59:04.906Z,1011.66
2016-11-03T02:00:04.887Z,1011.65
2016-11-03T02:01:04.884Z,1011.73
2016-11-03T02:02:04.851Z,1011.68
2016-11-03T02:03:04.836Z,1011.7
2016-11-03T02:04:04.819Z,1011.68
2016-11-03T02:05:04.800Z,1011.66
2016-11-03T02:06:04.780Z,1011.65
2016-11-03T02:07:04.763Z,1011.65
2016-11-03T02:08:04.745Z,1011.66
2016-11-03T02:09:04.728Z,1011.62
2016-11-03T02:10:04.709Z,1011.61
2016-11-03T02:11:04.692Z,1011.63
2016-11-03T02:12:04.675Z,1011.62
2016-11-03T02:13:04.656Z,1011.63
2016-11-03T02:14:04.641Z,1011.64
2016-11-03T02:15:04.622Z,1011.66
2016-11-03T02:16:04.604Z,1011.63
2016-11-03T02:17:04.587Z,1011.65
2016-11-03T02:18:04.567Z,1011.65
2016-11-03T02:19:04.552Z,1011.63
2016-11-03T02:20:04.531Z,1011.65
2016-11-03T02:21:04.514Z,1011.62
2016-11-03T02:22:04.496Z,1011.64
2016-11-03T02:23:04.478Z,1011.66
2016-11-03T02:24:04.461Z,1011.65
2016-11-03T02:25:04.443Z,1011.67
2016-11-03T02:26:04.426Z,1011.7
2016-11-03T02:27:04.407Z,1011.7
2016-11-03T02:28:04.391Z,1011.72
2016-11-03T02:29:04.374Z,1011.72
2016-11-03T02:30:04.355Z,1011.73
2016-11-03T02:31:04.337Z,1011.74
2016-11-03T02:32:04.320Z,1011.72
2016-11-03T02:33:04.301Z,1011.75
2016-11-03T02:34:04.286Z,1011.71
2016-11-03T02:35:04.265Z,1011.72
2016-11-03T02:36:04.250Z,1011.71
2016-11-03T02:37:04.229Z,1011.76
2016-11-03T02:38:04.212Z,1011.73
2016-11-03T02:39:04.193Z,1011.72
2016-11-03T02:40:04.178Z,1011.7
2016-11-03T02:41:04.160Z,1011.68
2016-11-03T02:42:04.140Z,1011.72
2016-11-03T02:43:04.124Z,1011.69
2016-11-03T02:44:04.109Z,1011.77
2016-11-03T02:45:04.088Z,1011.75
2016-11-03T02:46:04.072Z,1011.73
2016-11-03T02:47:04.054Z,1011.74
2016-11-03T02:48:04.036Z,1011.66
2016-11-03T02:49:04.018Z,1011.72
2016-11-03T02:50:04.000Z,1011.69
2016-11-03T02:51:03.982Z,1011.7
2016-11-03T02:52:03.967Z,1011.71
2016-11-03T02:53:03.947Z,1011.72
2016-11-03T02:54:03.930Z,1011.7
2016-11-03T02:55:03.912Z,1011.72
2016-11-03T02:56:03.894Z,1011.71
2016-11-03T02:57:03.876Z,1011.69
2016-11-03T02:58:03.859Z,1011.65
2016-11-03T02:59:03.840Z,1011.7
2016-11-03T03:00:03.822Z,1011.69
2016-11-03T03:01:03.806Z,1011.69
2016-11-03T03:02:03.789Z,1011.66
2016-11-03T03:03:03.770Z,1011.66
2016-11-03T03:04:03.753Z,1011.64
2016-11-03T03:05:03.735Z,1011.69
2016-11-03T03:06:03.718Z,1011.71
2016-11-03T03:07:03.701Z,1011.7
2016-11-03T03:08:03.685Z,1011.68
2016-11-03T03:09:03.667Z,1011.74
2016-11-03T03:10:03.650Z,1011.67
2016-11-03T03:11:03.632Z,1011.7
2016-11-03T03:12:03.613Z,1011.67
2016-11-03T03:13:03.595Z,1011.75
2016-11-03T03:14:03.578Z,1011.76
2016-11-03T03:15:03.561Z,1011.81
2016-11-03T03:16:03.546Z,1011.77
2016-11-03T03:17:03.525Z,1011.82
2016-11-03T03:18:03.507Z,1011.78
2016-11-03T03:19:03.491Z,1011.77
2016-11-03T03:20:03.475Z,1011.81
2016-11-03T03:21:03.455Z,1011.8
2016-11-03T03:22:03.438Z,1011.83
2016-11-03T03:23:03.424Z,1011.85
2016-11-03T03:24:03.406Z,1011.82
2016-11-03T03:25:03.389Z,1011.85
2016-11-03T03:26:03.368Z,1011.83
2016-11-03T03:27:03.352Z,1011.83
2016-11-03T03:28:03.334Z,1011.85
2016-11-03T03:29:03.317Z,1011.85
2016-11-03T03:30:03.299Z,1011.85
2016-11-03T03:31:03.282Z,1011.83
2016-11-03T03:32:03.264Z,1011.78
2016-11-03T03:33:03.245Z,1011.78
2016-11-03T03:34:03.229Z,1011.77
2016-11-03T03:35:03.211Z,1011.79
2016-11-03T03:36:03.195Z,1011.8
2016-11-03T03:37:03.177Z,1011.78
2016-11-03T03:38:03.160Z,1011.78
2016-11-03T03:39:03.143Z,1011.8
2016-11-03T03:40:03.124Z,1011.78
2016-11-03T03:41:03.107Z,1011.81
2016-11-03T03:42:03.093Z,1011.86
2016-11-03T03:43:03.072Z,1011.84
2016-11-03T03:44:03.057Z,1011.8
2016-11-03T03:45:03.044Z,1011.84
2016-11-03T03:46:03.022Z,1011.86
2016-11-03T03:47:03.009Z,1011.85
2016-11-03T03:48:02.986Z,1011.85
2016-11-03T03:49:02.970Z,1011.85
2016-11-03T03:50:02.950Z,1011.91
2016-11-03T03:51:02.935Z,1011.96
2016-11-03T03:52:02.916Z,1011.92
2016-11-03T03:53:02.898Z,1011.95
2016-11-03T03:54:02.882Z,1011.96
2016-11-03T03:55:02.863Z,1011.96
2016-11-03T03:56:02.847Z,1011.94
2016-11-03T03:57:02.830Z,1011.98
2016-11-03T03:58:02.812Z,1011.97
2016-11-03T03:59:02.792Z,1011.97
2016-11-03T04:00:02.777Z,1011.98
2016-11-03T04:01:02.760Z,1011.96
2016-11-03T04:02:02.741Z,1011.95
2016-11-03T04:03:02.725Z,1011.93
2016-11-03T04:04:02.708Z,1011.91
2016-11-03T04:05:02.689Z,1011.96
2016-11-03T04:06:02.670Z,1011.93
2016-11-03T04:07:02.658Z,1011.95
2016-11-03T04:08:02.638Z,1011.94
2016-11-03T04:09:02.619Z,1011.93
2016-11-03T04:10:02.601Z,1011.96
2016-11-03T04:11:02.583Z,1011.95
2016-11-03T04:12:02.567Z,1011.94
2016-11-03T04:13:02.550Z,1011.93
2016-11-03T04:14:02.531Z,1011.94
2016-11-03T04:15:02.515Z,1011.94
2016-11-03T04:16:02.498Z,1011.92
2016-11-03T04:17:02.478Z,1011.9
2016-11-03T04:18:02.462Z,1011.98
2016-11-03T04:19:02.444Z,1011.95
2016-11-03T04:20:02.427Z,1011.98
2016-11-03T04:21:02.409Z,1011.97
2016-11-03T04:22:02.391Z,1011.96
2016-11-03T04:23:02.375Z,1011.99
2016-11-03T04:24:02.357Z,1011.99
2016-11-03T04:25:02.338Z,1012
2016-11-03T04:26:02.323Z,1011.98
2016-11-03T04:27:02.305Z,1011.96
2016-11-03T04:28:02.289Z,1011.97
2016-11-03T04:29:02.270Z,1011.96
2016-11-03T04:30:02.251Z,1011.96
2016-11-03T04:31:02.238Z,1011.91
2016-11-03T04:32:02.215Z,1011.94
2016-11-03T04:33:02.201Z,1011.93
2016-11-03T04:34:02.181Z,1011.93
2016-11-03T04:35:02.165Z,1011.93
2016-11-03T04:36:02.147Z,1011.9
2016-11-03T04:37:02.130Z,1011.94
2016-11-03T04:38:02.113Z,1011.9
2016-11-03T04:39:02.093Z,1011.91
2016-11-03T04:40:02.076Z,1011.93
2016-11-03T04:41:02.059Z,1011.96
2016-11-03T04:42:02.043Z,1011.9
2016-11-03T04:43:02.023Z,1011.95
2016-11-03T04:44:02.006Z,1011.9
2016-11-03T04:45:01.990Z,1011.92
2016-11-03T04:46:01.972Z,1011.94
2016-11-03T04:47:01.959Z,1011.94
2016-11-03T04:48:01.942Z,1011.97
2016-11-03T04:49:01.932Z,1011.92
2016-11-03T04:50:01.903Z,1011.95
2016-11-03T04:51:01.883Z,1011.98
2016-11-03T04:52:01.867Z,1011.98
2016-11-03T04:53:01.847Z,1012.03
2016-11-03T04:54:01.830Z,1012
2016-11-03T04:55:01.813Z,1012.02
2016-11-03T04:56:01.796Z,1012.02
2016-11-03T04:57:01.777Z,1012.03
2016-11-03T04:58:01.760Z,1011.99
2016-11-03T04:59:01.742Z,1011.97
2016-11-03T05:00:01.725Z,1011.97
2016-11-03T05:01:01.707Z,1011.96
2016-11-03T05:02:01.690Z,1011.95
2016-11-03T05:03:01.677Z,1011.94
2016-11-03T05:04:01.656Z,1011.97
2016-11-03T05:05:01.635Z,1012.01
2016-11-03T05:06:01.620Z,1011.9
2016-11-03T05:07:01.602Z,1011.95
2016-11-03T05:08:01.582Z,1012
2016-11-03T05:09:01.567Z,1011.96
2016-11-03T05:10:01.548Z,1011.93
2016-11-03T05:11:01.532Z,1011.95
2016-11-03T05:12:01.511Z,1011.97
2016-11-03T05:13:01.494Z,1011.95
2016-11-03T05:14:01.477Z,1011.98
2016-11-03T05:15:01.459Z,1011.95
2016-11-03T05:16:01.442Z,1011.96
2016-11-03T05:17:01.424Z,1012.01
2016-11-03T05:18:01.409Z,1011.96
2016-11-03T05:19:01.390Z,1011.98
2016-11-03T05:20:01.370Z,1011.98
2016-11-03T05:21:01.353Z,1011.99
2016-11-03T05:22:01.336Z,1011.97
2016-11-03T05:23:01.325Z,1011.99
2016-11-03T05:24:01.300Z,1012.02
2016-11-03T05:25:01.283Z,1012.04
2016-11-03T05:26:01.264Z,1012.08
2016-11-03T05:27:01.245Z,1012.1
2016-11-03T05:28:01.229Z,1012.06
2016-11-03T05:29:01.211Z,1012.08
2016-11-03T05:30:01.192Z,1012.08
2016-11-03T05:31:01.175Z,1012.07
2016-11-03T05:32:01.158Z,1012.09
2016-11-03T05:33:01.140Z,1012.09
2016-11-03T05:34:01.121Z,1012.13
2016-11-03T05:35:01.107Z,1012.14
2016-11-03T05:36:01.088Z,1012.11
2016-11-03T05:37:01.069Z,1012.13
2016-11-03T05:38:01.052Z,1012.12
2016-11-03T05:39:01.037Z,1012.11
2016-11-03T05:40:01.016Z,1012.12
2016-11-03T05:41:00.999Z,1012.15
2016-11-03T05:42:00.981Z,1012.12
2016-11-03T05:43:00.963Z,1012.1
2016-11-03T05:44:00.946Z,1012.15
2016-11-03T05:45:00.929Z,1012.15
2016-11-03T05:46:00.909Z,1012.12
2016-11-03T05:47:00.893Z,1012.14
2016-11-03T05:48:00.875Z,1012.16
2016-11-03T05:49:00.857Z,1012.16
2016-11-03T05:50:00.840Z,1012.16
2016-11-03T05:51:00.822Z,1012.24
2016-11-03T05:52:00.803Z,1012.23
2016-11-03T05:53:00.787Z,1012.19
2016-11-03T05:54:00.770Z,1012.22
2016-11-03T05:55:00.751Z,1012.24
2016-11-03T05:56:00.735Z,1012.19
2016-11-03T05:57:00.716Z,1012.24
2016-11-03T05:58:00.699Z,1012.25
2016-11-03T05:59:00.682Z,1012.2
2016-11-03T06:00:00.664Z,1012.16
2016-11-03T06:01:00.647Z,1012.13
2016-11-03T06:02:00.628Z,1012.12
2016-11-03T06:03:00.611Z,1012.12
2016-11-03T06:04:00.593Z,1012.15
2016-11-03T06:05:00.779Z,1012.14
2016-11-03T06:06:00.559Z,1012.21
2016-11-03T06:07:00.544Z,1012.17
2016-11-03T06:08:00.533Z,1012.21
2016-11-03T06:09:00.506Z,1012.22
2016-11-03T06:10:00.487Z,1012.22
2016-11-03T06:11:00.471Z,1012.15
2016-11-03T06:12:00.452Z,1012.24
2016-11-03T06:13:00.436Z,1012.23
2016-11-03T06:14:00.417Z,1012.21
2016-11-03T06:15:00.400Z,1012.24
2016-11-03T06:16:00.383Z,1012.25
2016-11-03T06:17:00.367Z,1012.3
2016-11-03T06:18:00.348Z,1012.27
2016-11-03T06:19:00.339Z,1012.31
2016-11-03T06:20:00.315Z,1012.33
2016-11-03T06:21:00.298Z,1012.4
2016-11-03T06:22:00.278Z,1012.35
2016-11-03T06:23:00.263Z,1012.34
2016-11-03T06:24:00.242Z,1012.35
2016-11-03T06:25:00.223Z,1012.35
2016-11-03T06:26:00.207Z,1012.36
2016-11-03T06:27:00.188Z,1012.38
2016-11-03T06:28:00.172Z,1012.33
2016-11-03T06:29:00.153Z,1012.38
2016-11-03T06:30:00.138Z,1012.36
2016-11-03T06:31:00.122Z,1012.38
2016-11-03T06:32:00.099Z,1012.43
2016-11-03T06:33:00.086Z,1012.41
2016-11-03T06:34:00.067Z,1012.47
2016-11-03T06:35:00.048Z,1012.45
2016-11-03T06:36:00.029Z,1012.51
2016-11-03T06:37:00.014Z,1012.48
2016-11-03T06:37:59.994Z,1012.51
2016-11-03T06:38:59.976Z,1012.54
2016-11-03T06:39:59.958Z,1012.55
2016-11-03T06:40:59.941Z,1012.55
2016-11-03T06:41:59.925Z,1012.56
2016-11-03T06:42:59.904Z,1012.58
2016-11-03T06:43:59.888Z,1012.56
2016-11-03T06:44:59.870Z,1012.58
2016-11-03T06:45:59.854Z,1012.6
2016-11-03T06:46:59.834Z,1012.62
2016-11-03T06:47:59.817Z,1012.6
2016-11-03T06:48:59.800Z,1012.65
2016-11-03T06:49:59.781Z,1012.65
2016-11-03T06:50:59.764Z,1012.61
2016-11-03T06:51:59.747Z,1012.61
2016-11-03T06:52:59.731Z,1012.64
2016-11-03T06:53:59.717Z,1012.62
2016-11-03T06:54:59.693Z,1012.65
2016-11-03T06:55:59.677Z,1012.68
2016-11-03T06:56:59.664Z,1012.66
2016-11-03T06:57:59.640Z,1012.69
2016-11-03T06:58:59.627Z,1012.67
2016-11-03T06:59:59.607Z,1012.67
2016-11-03T07:00:59.589Z,1012.75
2016-11-03T07:01:59.581Z,1012.72
2016-11-03T07:02:59.554Z,1012.75
2016-11-03T07:03:59.539Z,1012.74
2016-11-03T07:04:59.520Z,1012.7
2016-11-03T07:05:59.501Z,1012.77
2016-11-03T07:06:59.485Z,1012.71
2016-11-03T07:07:59.468Z,1012.69
2016-11-03T07:08:59.452Z,1012.69
2016-11-03T07:09:59.431Z,1012.7
2016-11-03T07:10:59.414Z,1012.72
2016-11-03T07:11:59.397Z,1012.68
2016-11-03T07:12:59.379Z,1012.72
2016-11-03T07:13:59.362Z,1012.79
2016-11-03T07:14:59.343Z,1012.79
2016-11-03T07:15:59.326Z,1012.83
2016-11-03T07:16:59.309Z,1012.83
2016-11-03T07:17:59.290Z,1012.83
2016-11-03T07:18:59.275Z,1012.83
2016-11-03T07:19:59.256Z,1012.82
2016-11-03T07:20:59.239Z,1012.81
2016-11-03T07:21:59.223Z,1012.84
2016-11-03T07:22:59.206Z,1012.88
2016-11-03T07:23:59.186Z,1012.92
2016-11-03T07:24:59.168Z,1012.94
2016-11-03T07:25:59.154Z,1012.94
2016-11-03T07:26:59.135Z,1012.92
2016-11-03T07:27:59.119Z,1012.95
2016-11-03T07:28:59.101Z,1012.91
2016-11-03T07:29:59.088Z,1012.94
2016-11-03T07:30:59.064Z,1012.95
2016-11-03T07:31:59.048Z,1012.92
2016-11-03T07:32:59.030Z,1012.98
2016-11-03T07:33:59.011Z,1013.01
2016-11-03T07:34:58.994Z,1012.97
2016-11-03T07:35:58.977Z,1013
2016-11-03T07:36:58.961Z,1012.97
2016-11-03T07:37:58.944Z,1012.99
2016-11-03T07:38:58.925Z,1013
2016-11-03T07:39:58.908Z,1013.04
2016-11-03T07:40:58.891Z,1013
2016-11-03T07:41:58.873Z,1013.02
2016-11-03T07:42:58.855Z,1012.99
2016-11-03T07:43:58.840Z,1012.99
2016-11-03T07:44:58.822Z,1013.04
2016-11-03T07:45:58.803Z,1012.99
2016-11-03T07:46:58.788Z,1013.04
2016-11-03T07:47:58.772Z,1013.02
2016-11-03T07:48:58.751Z,1013
2016-11-03T07:49:58.736Z,1012.96
2016-11-03T07:50:58.716Z,1013
2016-11-03T07:51:58.699Z,1012.98
2016-11-03T07:52:58.682Z,1012.99
2016-11-03T07:53:58.665Z,1012.99
2016-11-03T07:54:58.649Z,1013.03
2016-11-03T07:55:58.632Z,1012.97
2016-11-03T07:56:58.612Z,1012.96
2016-11-03T07:57:58.595Z,1013.01
2016-11-03T07:58:58.579Z,1012.95
2016-11-03T07:59:58.563Z,1013.01
2016-11-03T08:00:58.542Z,1013.03
2016-11-03T08:01:58.528Z,1013.01
2016-11-03T08:02:58.507Z,1013.04
2016-11-03T08:03:58.491Z,1012.99
2016-11-03T08:04:58.676Z,1013.02
2016-11-03T08:05:58.458Z,1013.01
2016-11-03T08:06:58.441Z,1012.99
2016-11-03T08:07:58.422Z,1013.04
2016-11-03T08:08:58.408Z,1013.05
2016-11-03T08:09:58.391Z,1013.02
2016-11-03T08:10:58.371Z,1013.01
2016-11-03T08:11:58.357Z,1012.96
2016-11-03T08:12:58.339Z,1012.97
2016-11-03T08:13:58.321Z,1012.94
2016-11-03T08:14:58.303Z,1012.9
2016-11-03T08:15:58.287Z,1012.92
2016-11-03T08:16:58.273Z,1012.93
2016-11-03T08:17:58.268Z,1012.9
2016-11-03T08:18:58.237Z,1012.92
2016-11-03T08:19:58.221Z,1012.93
2016-11-03T08:20:58.207Z,1012.95
2016-11-03T08:21:58.185Z,1012.91
2016-11-03T08:22:58.170Z,1012.95
2016-11-03T08:23:58.153Z,1012.91
2016-11-03T08:24:58.135Z,1012.94
2016-11-03T08:25:58.121Z,1012.99
2016-11-03T08:26:58.104Z,1012.94
2016-11-03T08:27:58.086Z,1012.98
2016-11-03T08:28:58.071Z,1012.97
2016-11-03T08:29:58.053Z,1012.97
2016-11-03T08:30:58.038Z,1012.93
2016-11-03T08:31:58.021Z,1012.98
2016-11-03T08:32:58.004Z,1012.96
2016-11-03T08:33:57.987Z,1013
2016-11-03T08:34:57.971Z,1013
2016-11-03T08:35:57.955Z,1013.01
2016-11-03T08:36:57.937Z,1013.03
2016-11-03T08:37:57.922Z,1013.03
2016-11-03T08:38:57.906Z,1013.02
2016-11-03T08:39:57.887Z,1013.05
2016-11-03T08:40:57.871Z,1013.02
2016-11-03T08:41:57.857Z,1013.02
2016-11-03T08:42:57.840Z,1013.05
2016-11-03T08:43:57.823Z,1013.12
2016-11-03T08:44:57.807Z,1013.09
2016-11-03T08:45:57.794Z,1013.06
2016-11-03T08:46:57.774Z,1013.07
2016-11-03T08:47:57.759Z,1013.09
2016-11-03T08:48:57.742Z,1013.09
2016-11-03T08:49:57.727Z,1013.1
2016-11-03T08:50:57.711Z,1013.12
2016-11-03T08:51:57.695Z,1013.11
2016-11-03T08:52:57.684Z,1013.17
2016-11-03T08:53:57.664Z,1013.15
2016-11-03T08:54:57.646Z,1013.17
2016-11-03T08:55:57.632Z,1013.2
2016-11-03T08:56:57.617Z,1013.16
2016-11-03T08:57:57.603Z,1013.17
2016-11-03T08:58:57.585Z,1013.17
2016-11-03T08:59:57.571Z,1013.14
2016-11-03T09:00:57.555Z,1013.15
2016-11-03T09:01:57.540Z,1013.18
2016-11-03T09:02:57.524Z,1013.21
2016-11-03T09:03:57.510Z,1013.21
2016-11-03T09:04:57.496Z,1013.2
2016-11-03T09:05:57.480Z,1013.22
2016-11-03T09:06:57.465Z,1013.22
2016-11-03T09:07:57.448Z,1013.23
2016-11-03T09:08:57.450Z,1013.21
2016-11-03T09:09:57.419Z,1013.26
2016-11-03T09:10:57.404Z,1013.26
2016-11-03T09:11:57.389Z,1013.28
2016-11-03T09:12:57.375Z,1013.24
2016-11-03T09:13:57.358Z,1013.28
2016-11-03T09:14:57.343Z,1013.27
2016-11-03T09:15:57.327Z,1013.23
2016-11-03T09:16:57.312Z,1013.25
2016-11-03T09:17:57.299Z,1013.21
2016-11-03T09:18:57.281Z,1013.25
2016-11-03T09:19:57.268Z,1013.21
2016-11-03T09:20:57.249Z,1013.24
2016-11-03T09:21:57.235Z,1013.28
2016-11-03T09:22:57.220Z,1013.23
2016-11-03T09:23:57.203Z,1013.25
2016-11-03T09:24:57.189Z,1013.25
2016-11-03T09:25:57.172Z,1013.25
2016-11-03T09:26:57.158Z,1013.27
2016-11-03T09:27:57.142Z,1013.31
2016-11-03T09:28:57.127Z,1013.26
2016-11-03T09:29:57.113Z,1013.29
2016-11-03T09:30:57.102Z,1013.29
2016-11-03T09:31:57.081Z,1013.31
2016-11-03T09:32:57.064Z,1013.25
2016-11-03T09:33:57.049Z,1013.31
2016-11-03T09:34:57.034Z,1013.25
2016-11-03T09:35:57.018Z,1013.27
2016-11-03T09:36:57.005Z,1013.3
2016-11-03T09:37:56.986Z,1013.29
2016-11-03T09:38:56.971Z,1013.3
2016-11-03T09:39:56.956Z,1013.27
2016-11-03T09:40:56.942Z,1013.3
2016-11-03T09:41:56.925Z,1013.3
2016-11-03T09:42:56.910Z,1013.3
2016-11-03T09:43:56.896Z,1013.33
2016-11-03T09:44:56.879Z,1013.3
2016-11-03T09:45:56.864Z,1013.3
2016-11-03T09:46:56.848Z,1013.28
2016-11-03T09:47:56.833Z,1013.26
2016-11-03T09:48:56.818Z,1013.25
2016-11-03T09:49:56.803Z,1013.25
2016-11-03T09:50:56.788Z,1013.34
2016-11-03T09:51:56.775Z,1013.31
2016-11-03T09:52:56.757Z,1013.37
2016-11-03T09:53:56.741Z,1013.34
2016-11-03T09:54:56.727Z,1013.34
2016-11-03T09:55:56.712Z,1013.31
2016-11-03T09:56:56.695Z,1013.28
2016-11-03T09:57:56.683Z,1013.32
2016-11-03T09:58:56.665Z,1013.34
2016-11-03T09:59:56.650Z,1013.33
2016-11-03T10:00:56.634Z,1013.3
2016-11-03T10:01:56.620Z,1013.31
2016-11-03T10:02:56.605Z,1013.3
2016-11-03T10:03:56.588Z,1013.3
2016-11-03T10:04:56.775Z,1013.3
2016-11-03T10:05:56.558Z,1013.3
2016-11-03T10:06:56.544Z,1013.32
2016-11-03T10:07:56.528Z,1013.32
2016-11-03T10:08:56.514Z,1013.33
2016-11-03T10:09:56.497Z,1013.32
2016-11-03T10:10:56.481Z,1013.33
2016-11-03T10:11:56.466Z,1013.32
2016-11-03T10:12:56.451Z,1013.27
2016-11-03T10:13:56.436Z,1013.26
2016-11-03T10:14:56.421Z,1013.27
2016-11-03T10:15:56.407Z,1013.31
2016-11-03T10:16:56.391Z,1013.29
2016-11-03T10:17:56.379Z,1013.27
2016-11-03T10:18:56.360Z,1013.23
2016-11-03T10:19:56.346Z,1013.22
2016-11-03T10:20:56.330Z,1013.26
2016-11-03T10:21:56.314Z,1013.2
2016-11-03T10:22:56.300Z,1013.24
2016-11-03T10:23:56.285Z,1013.23
2016-11-03T10:24:56.268Z,1013.19
2016-11-03T10:25:56.252Z,1013.21
2016-11-03T10:26:56.237Z,1013.19
2016-11-03T10:27:56.222Z,1013.16
2016-11-03T10:28:56.206Z,1013.19
2016-11-03T10:29:56.190Z,1013.18
2016-11-03T10:30:56.175Z,1013.18
2016-11-03T10:31:56.159Z,1013.13
2016-11-03T10:32:56.151Z,1013.15
2016-11-03T10:33:56.137Z,1013.13
2016-11-03T10:34:56.115Z,1013.13
2016-11-03T10:35:56.105Z,1013.14
2016-11-03T10:36:56.084Z,1013.15
2016-11-03T10:37:56.068Z,1013.12
2016-11-03T10:38:56.055Z,1013.18
2016-11-03T10:39:56.046Z,1013.16
2016-11-03T10:40:56.027Z,1013.16
2016-11-03T10:41:56.011Z,1013.18
2016-11-03T10:42:56.003Z,1013.2
2016-11-03T10:43:55.981Z,1013.14
2016-11-03T10:44:55.966Z,1013.16
2016-11-03T10:45:55.954Z,1013.16
2016-11-03T10:46:55.940Z,1013.12
2016-11-03T10:47:55.925Z,1013.15
2016-11-03T10:48:55.911Z,1013.09
2016-11-03T10:49:55.895Z,1013.1
2016-11-03T10:50:55.883Z,1013.14
2016-11-03T10:51:55.868Z,1013.13
2016-11-03T10:52:55.855Z,1013.13
2016-11-03T10:53:55.840Z,1013.11
2016-11-03T10:54:55.826Z,1013.16
2016-11-03T10:55:55.812Z,1013.09
2016-11-03T10:56:55.799Z,1013.16
2016-11-03T10:57:55.784Z,1013.12
2016-11-03T10:58:55.775Z,1013.09
2016-11-03T10:59:55.757Z,1013.08
2016-11-03T11:00:55.743Z,1013.1
2016-11-03T11:01:55.728Z,1013.09
2016-11-03T11:02:55.717Z,1013.12
2016-11-03T11:03:55.703Z,1013.08
2016-11-03T11:04:55.689Z,1013.08
2016-11-03T11:05:55.674Z,1013.07
2016-11-03T11:06:55.660Z,1013.05
2016-11-03T11:07:55.648Z,1013.07
2016-11-03T11:08:55.633Z,1013.07
2016-11-03T11:09:55.620Z,1013.04
2016-11-03T11:10:55.606Z,1013.12
2016-11-03T11:11:55.595Z,1013.11
2016-11-03T11:12:55.580Z,1013.13
2016-11-03T11:13:55.566Z,1013.09
2016-11-03T11:14:55.553Z,1013.09
2016-11-03T11:15:55.640Z,1013.12
2016-11-03T11:16:55.530Z,1013.13
2016-11-03T11:17:55.513Z,1013.06
2016-11-03T11:18:55.500Z,1013.12
2016-11-03T11:19:55.486Z,1013.14
2016-11-03T11:20:55.472Z,1013.1
2016-11-03T11:21:55.458Z,1013.07
2016-11-03T11:22:55.445Z,1013.05
2016-11-03T11:23:55.431Z,1013.05
2016-11-03T11:24:55.419Z,1013.06
2016-11-03T11:25:55.405Z,1013.06
2016-11-03T11:26:55.392Z,1013.04
2016-11-03T11:27:55.378Z,1013.06
2016-11-03T11:28:55.368Z,1013.05
2016-11-03T11:29:55.355Z,1013.02
2016-11-03T11:30:55.342Z,1013.04
2016-11-03T11:31:55.329Z,1013.02
2016-11-03T11:32:55.314Z,1013.04
2016-11-03T11:33:55.303Z,1013.03
2016-11-03T11:34:55.289Z,1012.97
2016-11-03T11:35:55.275Z,1013.01
2016-11-03T11:36:55.262Z,1013.03
2016-11-03T11:37:55.249Z,1013.04
2016-11-03T11:38:55.246Z,1013.06
2016-11-03T11:39:55.226Z,1013.05
2016-11-03T11:40:55.210Z,1013.09
2016-11-03T11:41:55.197Z,1013.02
2016-11-03T11:42:55.182Z,1012.99
2016-11-03T11:43:55.172Z,1013.04
2016-11-03T11:44:55.157Z,1013.06
2016-11-03T11:45:55.142Z,1013.02
2016-11-03T11:46:55.129Z,1013.02
2016-11-03T11:47:55.115Z,1013.06
2016-11-03T11:48:55.104Z,1013.03
2016-11-03T11:49:55.089Z,1013.01
2016-11-03T11:50:55.074Z,1012.98
2016-11-03T11:51:55.061Z,1013.02
2016-11-03T11:52:55.047Z,1012.98
2016-11-03T11:53:55.032Z,1012.95
2016-11-03T11:54:55.019Z,1012.96
2016-11-03T11:55:55.011Z,1012.99
2016-11-03T11:56:54.991Z,1012.99
2016-11-03T11:57:54.977Z,1013.01
2016-11-03T11:58:54.965Z,1012.99
2016-11-03T11:59:54.950Z,1012.96
2016-11-03T12:00:54.936Z,1012.97
2016-11-03T12:01:54.923Z,1012.98
2016-11-03T12:02:54.909Z,1012.94
2016-11-03T12:03:54.895Z,1012.95
2016-11-03T12:04:55.084Z,1012.9
2016-11-03T12:05:54.868Z,1012.95
2016-11-03T12:06:54.856Z,1012.94
2016-11-03T12:07:54.842Z,1012.89